createdAt,value
2019-01-29T00:01:01.126Z,2.80
2019-01-29T00:03:32.449Z,2.80
2019-01-29T00:06:02.838Z,2.80
2019-01-29T00:08:33.165Z,2.80
2019-01-29T00:11:03.484Z,2.90
2019-01-29T00:13:33.824Z,2.90
2019-01-29T00:16:04.759Z,2.90
2019-01-29T00:18:35.121Z,2.90
2019-01-29T00:21:05.453Z,3.00
2019-01-29T00:23:35.815Z,3.00
2019-01-29T00:26:06.163Z,2.90
2019-01-29T00:28:36.483Z,2.90
2019-01-29T00:31:06.872Z,2.90
2019-01-29T00:33:37.329Z,2.90
2019-01-29T00:36:08.125Z,2.90
2019-01-29T00:38:38.473Z,2.90
2019-01-29T00:41:08.819Z,2.90
2019-01-29T00:43:39.125Z,2.90
2019-01-29T00:46:09.449Z,2.90
2019-01-29T00:48:39.773Z,2.90
2019-01-29T00:51:10.161Z,2.90
2019-01-29T00:53:40.467Z,2.90
2019-01-29T00:56:10.825Z,2.90
2019-01-29T00:58:41.123Z,2.90
2019-01-29T01:01:11.469Z,2.90
2019-01-29T01:03:41.839Z,2.90
2019-01-29T01:06:12.137Z,2.90
2019-01-29T01:08:42.938Z,2.90
2019-01-29T01:11:13.333Z,2.80
2019-01-29T01:13:43.623Z,2.80
2019-01-29T01:16:13.974Z,2.90
2019-01-29T01:18:44.298Z,2.90
2019-01-29T01:21:14.644Z,2.90
2019-01-29T01:23:44.951Z,2.90
2019-01-29T01:26:15.322Z,2.90
2019-01-29T01:28:45.681Z,2.90
2019-01-29T01:31:15.985Z,2.90
2019-01-29T01:33:46.395Z,2.90
2019-01-29T01:36:16.723Z,2.90
2019-01-29T01:38:47.103Z,2.80
2019-01-29T01:41:17.427Z,2.80
2019-01-29T01:43:47.735Z,2.80
2019-01-29T01:46:18.433Z,2.70
2019-01-29T01:48:49.331Z,2.70
2019-01-29T01:51:19.695Z,2.70
2019-01-29T01:53:50.042Z,2.70
2019-01-29T01:56:20.445Z,2.70
2019-01-29T01:58:50.745Z,2.70
2019-01-29T02:01:21.069Z,2.60
2019-01-29T02:03:51.377Z,2.60
2019-01-29T02:06:22.604Z,2.50
2019-01-29T02:08:52.961Z,2.50
2019-01-29T02:11:23.335Z,2.50
2019-01-29T02:13:53.700Z,2.50
2019-01-29T02:16:24.139Z,2.50
2019-01-29T02:18:54.455Z,2.50
2019-01-29T02:21:24.793Z,2.50
2019-01-29T02:23:55.100Z,2.40
2019-01-29T02:26:25.863Z,2.40
2019-01-29T02:28:56.237Z,2.40
2019-01-29T02:31:26.573Z,2.40
2019-01-29T02:33:56.859Z,2.40
2019-01-29T02:36:27.312Z,2.40
2019-01-29T02:38:57.589Z,2.40
2019-01-29T02:41:27.930Z,2.40
2019-01-29T02:43:58.234Z,2.30
2019-01-29T02:46:28.533Z,2.30
2019-01-29T02:48:58.854Z,2.30
2019-01-29T02:51:29.163Z,2.30
2019-01-29T02:53:59.506Z,2.30
2019-01-29T02:56:29.916Z,2.30
2019-01-29T02:59:00.229Z,2.20
2019-01-29T03:01:31.532Z,2.20
2019-01-29T03:04:01.985Z,2.20
2019-01-29T03:06:33.857Z,2.20
2019-01-29T03:09:07.197Z,2.20
2019-01-29T03:11:37.895Z,2.20
2019-01-29T03:14:08.203Z,2.20
2019-01-29T03:16:38.557Z,2.20
2019-01-29T03:19:08.917Z,2.20
2019-01-29T03:21:39.264Z,2.20
2019-01-29T03:24:09.645Z,2.20
2019-01-29T03:26:39.992Z,2.20
2019-01-29T03:29:10.338Z,2.20
2019-01-29T03:31:40.666Z,2.20
2019-01-29T03:34:10.998Z,2.20
2019-01-29T03:36:41.877Z,2.20
2019-01-29T03:39:12.637Z,2.20
2019-01-29T03:41:42.978Z,2.20
2019-01-29T03:44:13.298Z,2.20
2019-01-29T03:46:43.621Z,2.20
2019-01-29T03:49:13.982Z,2.20
2019-01-29T03:51:44.321Z,2.20
2019-01-29T03:54:14.673Z,2.20
2019-01-29T03:56:44.998Z,2.20
2019-01-29T03:59:15.377Z,2.20
2019-01-29T04:01:45.701Z,2.20
2019-01-29T04:04:16.063Z,2.20
2019-01-29T04:06:46.395Z,2.20
2019-01-29T04:09:16.761Z,2.20
2019-01-29T04:11:47.152Z,2.20
2019-01-29T04:14:17.935Z,2.20
2019-01-29T04:16:48.322Z,2.20
2019-01-29T04:19:18.649Z,2.30
2019-01-29T04:21:48.987Z,2.30
2019-01-29T04:24:19.309Z,2.30
2019-01-29T04:26:49.756Z,2.30
2019-01-29T04:29:20.065Z,2.30
2019-01-29T04:31:50.399Z,2.30
2019-01-29T04:34:20.745Z,2.30
2019-01-29T04:37:01.617Z,2.30
2019-01-29T04:39:32.021Z,2.20
2019-01-29T04:42:02.340Z,2.20
2019-01-29T04:44:32.689Z,2.20
2019-01-29T04:47:03.007Z,2.20
2019-01-29T04:49:33.363Z,2.20
2019-01-29T04:52:03.845Z,2.20
2019-01-29T04:54:34.187Z,2.20
2019-01-29T04:57:04.635Z,2.10
2019-01-29T04:59:35.378Z,2.20
2019-01-29T05:02:05.775Z,2.10
2019-01-29T05:04:36.104Z,2.10
2019-01-29T05:07:07.909Z,2.10
2019-01-29T05:09:38.658Z,2.10
2019-01-29T05:12:08.963Z,2.10
2019-01-29T05:14:39.720Z,2.10
2019-01-29T05:17:10.033Z,2.10
2019-01-29T05:19:40.398Z,2.10
2019-01-29T05:22:10.801Z,2.10
2019-01-29T05:24:41.137Z,2.10
2019-01-29T05:27:11.487Z,2.10
2019-01-29T05:29:41.837Z,2.10
2019-01-29T05:32:12.153Z,2.10
2019-01-29T05:34:42.472Z,2.10
2019-01-29T05:37:14.234Z,2.10
2019-01-29T05:39:44.649Z,2.20
2019-01-29T05:42:15.123Z,2.20
2019-01-29T05:44:45.521Z,2.20
2019-01-29T05:47:15.903Z,2.20
2019-01-29T05:49:46.357Z,2.20
2019-01-29T05:52:16.709Z,2.20
2019-01-29T05:54:47.057Z,2.20
2019-01-29T05:57:17.789Z,2.20
2019-01-29T05:59:48.117Z,2.20
2019-01-29T06:02:18.456Z,2.20
2019-01-29T06:04:48.985Z,2.20
2019-01-29T06:07:19.399Z,2.30
2019-01-29T06:09:49.749Z,2.30
2019-01-29T06:12:20.065Z,2.30
2019-01-29T06:14:50.466Z,2.30
2019-01-29T06:17:27.381Z,2.30
2019-01-29T06:19:52.715Z,2.30
2019-01-29T06:22:23.068Z,2.30
2019-01-29T06:24:53.507Z,2.30
2019-01-29T06:27:23.971Z,2.30
2019-01-29T06:29:54.371Z,2.30
2019-01-29T06:32:25.811Z,2.30
2019-01-29T06:34:56.205Z,2.40
2019-01-29T06:37:27.438Z,2.40
2019-01-29T06:39:57.809Z,2.40
2019-01-29T06:42:28.229Z,2.40
2019-01-29T06:45:08.871Z,2.40
2019-01-29T06:47:39.183Z,2.40
2019-01-29T06:50:12.264Z,2.40
2019-01-29T06:52:42.611Z,2.40
2019-01-29T06:55:15.240Z,2.40
2019-01-29T06:57:54.550Z,2.40
2019-01-29T07:00:23.326Z,2.40
2019-01-29T07:02:53.726Z,2.40
2019-01-29T07:05:24.049Z,2.50
2019-01-29T07:07:55.626Z,2.50
2019-01-29T07:10:26.457Z,2.50
2019-01-29T07:12:57.845Z,2.50
2019-01-29T07:15:46.530Z,2.60
2019-01-29T07:18:36.487Z,2.60
2019-01-29T07:21:09.070Z,2.60
2019-01-29T07:23:39.396Z,2.60
2019-01-29T07:26:09.721Z,2.60
2019-01-29T07:28:40.141Z,2.70
2019-01-29T07:31:10.531Z,2.60
2019-01-29T07:33:42.028Z,2.70
2019-01-29T07:36:12.437Z,2.80
2019-01-29T07:38:44.081Z,2.80
2019-01-29T07:41:15.040Z,2.90
2019-01-29T07:43:45.449Z,2.90
2019-01-29T07:46:15.866Z,3.00
2019-01-29T07:48:46.193Z,3.10
2019-01-29T07:51:16.497Z,3.10
2019-01-29T07:53:46.819Z,3.20
2019-01-29T07:56:17.203Z,3.20
2019-01-29T07:58:49.275Z,3.30
2019-01-29T08:01:20.510Z,3.40
2019-01-29T08:03:51.303Z,3.40
2019-01-29T08:06:21.705Z,3.40
2019-01-29T08:08:53.564Z,3.40
2019-01-29T08:11:24.049Z,3.40
2019-01-29T08:13:54.371Z,3.50
2019-01-29T08:16:24.709Z,3.60
2019-01-29T08:18:55.094Z,3.60
2019-01-29T08:21:25.427Z,3.70
2019-01-29T08:23:55.795Z,3.70
2019-01-29T08:26:26.145Z,3.70
2019-01-29T08:28:56.513Z,3.80
2019-01-29T08:31:26.937Z,3.80
2019-01-29T08:33:57.309Z,3.80
2019-01-29T08:36:27.705Z,3.70
2019-01-29T08:38:58.212Z,3.70
2019-01-29T08:41:28.603Z,3.80
2019-01-29T08:43:59.003Z,3.70
2019-01-29T08:46:29.403Z,3.70
2019-01-29T08:48:59.766Z,3.70
2019-01-29T08:51:30.111Z,3.70
2019-01-29T08:54:00.843Z,3.80
2019-01-29T08:56:31.163Z,3.80
2019-01-29T08:59:01.525Z,3.90
2019-01-29T09:01:32.737Z,3.90
2019-01-29T09:04:03.049Z,3.90
2019-01-29T09:06:33.389Z,3.90
2019-01-29T09:09:07.555Z,3.90
2019-01-29T09:11:39.167Z,3.90
2019-01-29T09:14:09.527Z,4.00
2019-01-29T09:16:39.888Z,4.10
2019-01-29T09:19:10.265Z,4.10
2019-01-29T09:21:40.661Z,4.20
2019-01-29T09:24:11.092Z,4.30
2019-01-29T09:26:41.528Z,4.40
2019-01-29T09:29:17.645Z,4.40
2019-01-29T09:31:43.924Z,4.50
2019-01-29T09:34:15.429Z,4.50
2019-01-29T09:36:45.801Z,4.60
2019-01-29T09:39:16.562Z,4.60
2019-01-29T09:41:47.019Z,4.60
2019-01-29T09:44:17.989Z,4.70
2019-01-29T09:46:48.398Z,4.80
2019-01-29T09:49:18.766Z,5.00
2019-01-29T09:51:49.191Z,5.10
2019-01-29T09:54:19.635Z,5.10
2019-01-29T09:56:50.031Z,5.20
2019-01-29T09:59:20.408Z,5.20
2019-01-29T10:01:50.800Z,5.20
2019-01-29T10:04:21.107Z,5.30
2019-01-29T10:06:51.453Z,5.30
2019-01-29T10:09:23.383Z,5.40
2019-01-29T10:11:53.811Z,5.60
2019-01-29T10:14:24.221Z,6.10
2019-01-29T10:16:54.591Z,6.50
2019-01-29T10:19:24.907Z,6.60
2019-01-29T10:21:55.255Z,6.70
2019-01-29T10:24:25.621Z,6.60
2019-01-29T10:26:56.034Z,6.50
2019-01-29T10:29:26.401Z,6.40
2019-01-29T10:31:56.807Z,6.40
2019-01-29T10:34:27.146Z,6.40
2019-01-29T10:36:57.567Z,6.30
2019-01-29T10:39:27.928Z,6.30
2019-01-29T10:41:58.287Z,6.30
2019-01-29T10:44:28.891Z,6.20
2019-01-29T10:46:59.335Z,6.10
2019-01-29T10:49:29.645Z,5.90
2019-01-29T10:52:00.040Z,5.90
2019-01-29T10:54:30.503Z,5.70
2019-01-29T10:57:00.846Z,5.70
2019-01-29T10:59:31.592Z,5.60
2019-01-29T11:02:01.938Z,5.50
2019-01-29T11:04:32.335Z,5.50
2019-01-29T11:07:02.765Z,5.50
2019-01-29T11:09:33.135Z,5.50
2019-01-29T11:12:03.587Z,5.50
2019-01-29T11:14:33.961Z,5.50
2019-01-29T11:17:04.749Z,5.40
2019-01-29T11:19:35.223Z,5.30
2019-01-29T11:22:06.161Z,5.30
2019-01-29T11:24:36.553Z,5.30
2019-01-29T11:27:06.973Z,5.20
2019-01-29T11:29:37.299Z,5.20
2019-01-29T11:32:07.642Z,5.10
2019-01-29T11:34:38.043Z,5.00
2019-01-29T11:37:08.425Z,5.00
2019-01-29T11:39:38.876Z,5.00
2019-01-29T11:42:09.217Z,5.00
2019-01-29T11:44:39.576Z,5.00
2019-01-29T11:47:09.973Z,5.00
2019-01-29T11:49:40.317Z,5.00
2019-01-29T11:52:11.218Z,5.00
2019-01-29T11:54:41.731Z,5.00
2019-01-29T11:57:12.181Z,5.10
2019-01-29T11:59:42.542Z,5.20
2019-01-29T12:02:12.885Z,5.20
2019-01-29T12:04:43.265Z,5.30
2019-01-29T12:07:13.607Z,5.40
2019-01-29T12:09:44.681Z,5.40
2019-01-29T12:12:15.039Z,5.40
2019-01-29T12:14:45.409Z,5.30
2019-01-29T12:17:15.763Z,5.30
2019-01-29T12:19:46.122Z,5.30
2019-01-29T12:22:16.519Z,5.30
2019-01-29T12:24:46.907Z,5.20
2019-01-29T12:27:17.371Z,5.20
2019-01-29T12:29:48.227Z,5.20
2019-01-29T12:32:18.637Z,5.20
2019-01-29T12:34:49.011Z,5.20
2019-01-29T12:37:19.357Z,5.20
2019-01-29T12:39:50.985Z,5.20
2019-01-29T12:42:21.441Z,5.10
2019-01-29T12:44:51.912Z,5.00
2019-01-29T12:47:22.357Z,4.90
2019-01-29T12:49:52.781Z,4.90
2019-01-29T12:52:32.007Z,4.80
2019-01-29T12:55:02.402Z,4.80
2019-01-29T12:57:32.763Z,4.90
2019-01-29T13:00:03.159Z,4.90
2019-01-29T13:02:34.620Z,4.90
2019-01-29T13:05:05.587Z,4.90
2019-01-29T13:07:35.921Z,4.90
2019-01-29T13:10:11.829Z,4.90
2019-01-29T13:12:42.236Z,4.90
2019-01-29T13:15:14.650Z,4.90
2019-01-29T13:17:45.017Z,4.90
2019-01-29T13:20:15.352Z,4.80
2019-01-29T13:22:45.726Z,4.80
2019-01-29T13:25:17.251Z,4.80
2019-01-29T13:27:47.609Z,4.80
2019-01-29T13:30:29.564Z,4.80
2019-01-29T13:32:59.943Z,4.90
2019-01-29T13:35:34.774Z,4.90
2019-01-29T13:38:05.768Z,4.90
2019-01-29T13:40:38.841Z,4.90
2019-01-29T13:43:09.786Z,4.90
2019-01-29T13:45:40.991Z,4.90
2019-01-29T13:48:12.401Z,4.80
2019-01-29T13:50:48.432Z,4.80
2019-01-29T13:53:18.827Z,4.80
2019-01-29T13:55:49.165Z,4.70
2019-01-29T13:58:19.521Z,4.70
2019-01-29T14:00:49.906Z,4.70
2019-01-29T14:03:20.359Z,4.70
2019-01-29T14:05:50.724Z,4.70
2019-01-29T14:08:21.055Z,4.60
2019-01-29T14:10:52.535Z,4.60
2019-01-29T14:13:22.910Z,4.60
2019-01-29T14:15:55.226Z,4.50
2019-01-29T14:18:27.681Z,4.50
2019-01-29T14:20:59.277Z,4.50
2019-01-29T14:23:29.773Z,4.50
2019-01-29T14:26:00.215Z,4.40
2019-01-29T14:28:30.602Z,4.40
2019-01-29T14:31:01.695Z,4.40
2019-01-29T14:33:32.089Z,4.40
2019-01-29T14:36:02.402Z,4.30
2019-01-29T14:38:54.802Z,4.30
2019-01-29T14:41:33.653Z,4.30
2019-01-29T14:44:05.520Z,4.30
2019-01-29T14:46:35.838Z,4.20
2019-01-29T14:49:06.287Z,4.20
2019-01-29T14:51:36.641Z,4.20
2019-01-29T14:54:07.529Z,4.20
2019-01-29T14:56:38.876Z,4.10
2019-01-29T14:59:09.227Z,4.20
2019-01-29T15:01:40.705Z,4.20
2019-01-29T15:04:11.037Z,4.20
2019-01-29T15:06:41.421Z,4.20
2019-01-29T15:09:13.172Z,4.20
2019-01-29T15:11:43.664Z,4.10
2019-01-29T15:14:17.982Z,4.00
2019-01-29T15:16:55.974Z,4.00
2019-01-29T15:19:28.045Z,4.00
2019-01-29T15:21:58.571Z,4.00
2019-01-29T15:24:28.953Z,4.10
2019-01-29T15:27:05.363Z,4.10
2019-01-29T15:29:31.357Z,4.10
2019-01-29T15:32:01.798Z,4.00
2019-01-29T15:34:32.177Z,4.00
2019-01-29T15:37:02.551Z,4.00
2019-01-29T15:39:32.893Z,4.00
2019-01-29T15:42:06.529Z,4.00
2019-01-29T15:44:36.912Z,4.00
2019-01-29T15:47:07.287Z,4.10
2019-01-29T15:49:37.663Z,4.10
2019-01-29T15:52:08.240Z,4.00
2019-01-29T15:54:38.654Z,4.00
2019-01-29T15:57:14.058Z,4.00
2019-01-29T15:59:42.900Z,3.90
2019-01-29T16:02:13.035Z,3.90
2019-01-29T16:04:43.350Z,3.80
2019-01-29T16:07:13.713Z,3.80
2019-01-29T16:09:44.075Z,3.70
2019-01-29T16:12:15.081Z,3.70
2019-01-29T16:14:45.502Z,3.60
2019-01-29T16:17:17.088Z,3.60
2019-01-29T16:19:47.455Z,3.60
2019-01-29T16:22:17.868Z,3.50
2019-01-29T16:24:48.249Z,3.50
2019-01-29T16:27:22.736Z,3.50
2019-01-29T16:29:50.981Z,3.60
2019-01-29T16:32:21.319Z,3.60
2019-01-29T16:34:51.670Z,3.50
2019-01-29T16:37:22.059Z,3.50
2019-01-29T16:39:52.450Z,3.50
2019-01-29T16:42:22.835Z,3.50
2019-01-29T16:44:53.240Z,3.50
2019-01-29T16:47:23.595Z,3.50
2019-01-29T16:49:53.945Z,3.40
2019-01-29T16:52:24.236Z,3.40
2019-01-29T16:54:54.547Z,3.40
2019-01-29T16:57:31.527Z,3.40
2019-01-29T16:59:56.977Z,3.40
2019-01-29T17:02:27.330Z,3.40
2019-01-29T17:04:58.058Z,3.40
2019-01-29T17:07:28.453Z,3.30
2019-01-29T17:09:58.812Z,3.30
2019-01-29T17:12:29.125Z,3.30
2019-01-29T17:14:59.865Z,3.20
2019-01-29T17:17:30.225Z,3.20
2019-01-29T17:20:00.621Z,3.20
2019-01-29T17:22:31.055Z,3.20
2019-01-29T17:25:01.450Z,3.20
2019-01-29T17:27:39.896Z,3.10
2019-01-29T17:30:04.942Z,3.20
2019-01-29T17:32:35.369Z,3.20
2019-01-29T17:35:06.215Z,3.20
2019-01-29T17:37:36.605Z,3.20
2019-01-29T17:40:07.847Z,3.20
2019-01-29T17:42:39.306Z,3.20
2019-01-29T17:45:12.039Z,3.20
2019-01-29T17:47:42.371Z,3.20
2019-01-29T17:50:16.399Z,3.10
2019-01-29T17:52:46.777Z,3.10
2019-01-29T17:55:17.591Z,3.00
2019-01-29T17:57:50.656Z,3.00
2019-01-29T18:00:24.003Z,3.00
2019-01-29T18:02:54.425Z,3.00
2019-01-29T18:05:36.814Z,2.90
2019-01-29T18:08:07.173Z,2.90
2019-01-29T18:10:37.527Z,2.80
2019-01-29T18:13:08.499Z,3.00
2019-01-29T18:15:38.839Z,2.90
2019-01-29T18:18:10.226Z,2.90
2019-01-29T18:20:40.594Z,2.90
2019-01-29T18:23:10.922Z,2.90
2019-01-29T18:25:41.264Z,2.90
2019-01-29T18:28:11.611Z,2.90
2019-01-29T18:30:42.126Z,2.90
2019-01-29T18:33:12.540Z,2.90
2019-01-29T18:35:42.874Z,2.90
2019-01-29T18:38:13.341Z,2.80
2019-01-29T18:40:56.223Z,2.90
2019-01-29T18:43:27.037Z,2.90
2019-01-29T18:45:57.537Z,2.90
2019-01-29T18:48:27.927Z,2.90
2019-01-29T18:50:58.321Z,2.90
2019-01-29T18:53:28.681Z,2.90
2019-01-29T18:55:59.059Z,2.90
2019-01-29T18:58:29.385Z,2.80
2019-01-29T19:00:59.749Z,2.80
2019-01-29T19:03:30.135Z,2.80
2019-01-29T19:06:00.545Z,2.70
2019-01-29T19:08:30.852Z,2.70
2019-01-29T19:11:01.183Z,2.70
2019-01-29T19:13:32.725Z,2.70
2019-01-29T19:16:03.133Z,2.70
2019-01-29T19:18:33.459Z,2.70
2019-01-29T19:21:03.818Z,2.80
2019-01-29T19:23:34.238Z,2.80
2019-01-29T19:26:04.547Z,2.80
2019-01-29T19:28:35.160Z,2.80
2019-01-29T19:31:08.334Z,2.80
2019-01-29T19:33:38.677Z,2.80
2019-01-29T19:36:09.022Z,2.80
2019-01-29T19:38:39.365Z,2.80
2019-01-29T19:41:09.685Z,2.80
2019-01-29T19:43:39.984Z,2.70
2019-01-29T19:46:10.354Z,2.70
2019-01-29T19:48:40.683Z,2.70
2019-01-29T19:51:11.057Z,2.70
2019-01-29T19:53:41.367Z,2.70
2019-01-29T19:56:11.737Z,2.70
2019-01-29T19:58:43.129Z,2.80
2019-01-29T20:01:13.477Z,2.70
2019-01-29T20:03:43.882Z,2.70
2019-01-29T20:06:14.241Z,2.80
2019-01-29T20:08:44.581Z,2.80
2019-01-29T20:11:14.972Z,2.80
2019-01-29T20:13:45.324Z,2.80
2019-01-29T20:16:15.663Z,2.80
2019-01-29T20:18:46.148Z,2.80
2019-01-29T20:21:16.619Z,2.70
2019-01-29T20:23:46.971Z,2.80
2019-01-29T20:26:17.312Z,2.80
2019-01-29T20:28:49.490Z,2.70
2019-01-29T20:31:20.030Z,2.70
2019-01-29T20:33:50.471Z,2.70
2019-01-29T20:36:20.914Z,2.60
2019-01-29T20:38:51.346Z,2.60
2019-01-29T20:41:21.661Z,2.60
2019-01-29T20:43:53.417Z,2.60
2019-01-29T20:46:23.775Z,2.60
2019-01-29T20:48:54.117Z,2.50
2019-01-29T20:51:24.462Z,2.60
2019-01-29T20:53:54.789Z,2.60
2019-01-29T20:56:25.169Z,2.60
2019-01-29T20:58:55.507Z,2.60
2019-01-29T21:01:25.876Z,2.60
2019-01-29T21:03:56.202Z,2.60
2019-01-29T21:06:26.923Z,2.60
2019-01-29T21:08:57.249Z,2.60
2019-01-29T21:11:27.609Z,2.60
2019-01-29T21:13:59.353Z,2.60
2019-01-29T21:16:29.713Z,2.60
2019-01-29T21:19:00.060Z,2.60
2019-01-29T21:21:32.458Z,2.60
2019-01-29T21:24:02.833Z,2.50
2019-01-29T21:26:33.192Z,2.50
2019-01-29T21:29:03.592Z,2.50
2019-01-29T21:31:33.901Z,2.50
2019-01-29T21:34:04.413Z,2.50
2019-01-29T21:36:34.759Z,2.50
2019-01-29T21:39:08.272Z,2.50
2019-01-29T21:41:38.576Z,2.50
2019-01-29T21:44:08.983Z,2.40
2019-01-29T21:46:39.406Z,2.40
2019-01-29T21:49:09.781Z,2.40
2019-01-29T21:51:40.115Z,2.50
2019-01-29T21:54:10.471Z,2.40
2019-01-29T21:56:40.989Z,2.50
2019-01-29T21:59:13.323Z,2.40
2019-01-29T22:01:44.147Z,2.40
2019-01-29T22:04:14.611Z,2.40
2019-01-29T22:06:45.016Z,2.40
2019-01-29T22:09:15.372Z,2.40
2019-01-29T22:11:45.705Z,2.40
2019-01-29T22:14:17.107Z,2.30
2019-01-29T22:16:47.481Z,2.30
2019-01-29T22:19:17.801Z,2.30
2019-01-29T22:21:48.138Z,2.30
2019-01-29T22:24:18.550Z,2.20
2019-01-29T22:26:48.869Z,2.20
2019-01-29T22:29:23.395Z,2.20
2019-01-29T22:31:51.203Z,2.10
2019-01-29T22:34:21.543Z,2.10
2019-01-29T22:36:51.909Z,2.10
2019-01-29T22:39:22.246Z,2.10
2019-01-29T22:41:52.631Z,2.20
2019-01-29T22:44:24.123Z,2.20
2019-01-29T22:46:55.311Z,2.20
2019-01-29T22:49:25.632Z,2.10
2019-01-29T22:51:56.012Z,2.10
2019-01-29T22:54:26.354Z,2.10
2019-01-29T22:56:56.725Z,2.10
2019-01-29T22:59:33.213Z,2.10
2019-01-29T23:01:59.040Z,2.10
2019-01-29T23:04:39.163Z,2.10
2019-01-29T23:07:33.952Z,2.00
2019-01-29T23:10:06.109Z,2.00
2019-01-29T23:12:36.429Z,2.00
2019-01-29T23:15:07.805Z,1.90
2019-01-29T23:17:40.391Z,1.90
2019-01-29T23:20:11.409Z,1.90
2019-01-29T23:22:41.736Z,2.00
2019-01-29T23:25:12.382Z,2.00
2019-01-29T23:27:42.705Z,2.00
2019-01-29T23:30:16.301Z,2.00
2019-01-29T23:32:46.706Z,1.90
2019-01-29T23:35:17.002Z,2.00
2019-01-29T23:37:47.328Z,1.90
2019-01-29T23:40:18.042Z,1.90
2019-01-29T23:42:48.429Z,1.80
2019-01-29T23:45:19.411Z,1.80
2019-01-29T23:48:00.442Z,1.80
2019-01-29T23:50:31.716Z,1.80
2019-01-29T23:53:02.065Z,1.70
2019-01-29T23:55:32.358Z,1.70
2019-01-29T23:58:02.737Z,1.60
